Time;durP1;ratioP1;P1;durP2;ratioP2;P2;SDS_P1;SDS_P2;PMS_P1;PMS_P2;Temp;Humidity;BMP_temperature;BMP_pressure;BME280_temperature;BME280_humidity;BME280_pressure;Samples;Min_cycle;Max_cycle;Signal;HPM_P1;HPM_P2
2022/06/06 00:00:08;;;;;;;13.20;9.30;;;;;;;19.01;100.00;99452.84;5115941;28;20429;-87
2022/06/06 00:02:36;;;;;;;12.82;8.95;;;;;;;19.02;100.00;99453.72;5115342;28;20421;-85
2022/06/06 00:05:02;;;;;;;10.63;8.77;;;;;;;18.98;100.00;99450.41;5114333;28;20211;-87
2022/06/06 00:07:29;;;;;;;10.63;7.70;;;;;;;18.85;100.00;99447.97;5115586;28;20944;-86
2022/06/06 00:09:56;;;;;;;12.37;8.67;;;;;;;18.70;100.00;99444.81;5115427;28;20429;-87
2022/06/06 00:12:24;;;;;;;11.27;8.97;;;;;;;18.61;100.00;99436.63;5115340;28;20420;-88
2022/06/06 00:14:51;;;;;;;9.55;8.52;;;;;;;18.61;100.00;99444.81;5118005;27;20445;-87
2022/06/06 00:17:18;;;;;;;9.48;8.30;;;;;;;18.64;100.00;99439.09;5135266;27;20234;-86
2022/06/06 00:19:44;;;;;;;12.05;9.25;;;;;;;18.68;100.00;99443.25;5135952;27;20601;-87
2022/06/06 00:22:11;;;;;;;9.23;8.32;;;;;;;18.78;100.00;99444.13;5135414;27;20284;-87
2022/06/06 00:24:38;;;;;;;9.50;8.50;;;;;;;18.80;100.00;99438.53;5130381;27;20218;-86
2022/06/06 00:27:05;;;;;;;9.30;8.40;;;;;;;18.67;100.00;99439.63;5114582;28;20209;-87
2022/06/06 00:29:35;;;;;;;10.93;8.40;;;;;;;18.47;100.00;99448.84;5115115;28;20531;-86
2022/06/06 00:35:03;;;;;;;9.83;8.83;;;;;;;18.67;100.00;99444.25;5074536;28;20434;-86
2022/06/06 00:37:32;;;;;;;9.87;8.87;;;;;;;18.79;100.00;99442.25;5071414;28;20466;-86
2022/06/06 00:40:01;;;;;;;9.67;8.43;;;;;;;18.92;100.00;99440.06;5091130;28;20547;-86
2022/06/06 00:42:34;;;;;;;9.00;8.10;;;;;;;18.95;100.00;99437.06;5115269;28;20818;-86
2022/06/06 00:45:25;;;;;;;8.33;7.53;;;;;;;19.10;100.00;99432.00;5114607;28;20893;-87
2022/06/06 00:48:00;;;;;;;8.30;7.50;;;;;;;19.16;100.00;99424.06;5114471;28;20899;-86
2022/06/06 00:50:34;;;;;;;10.53;8.63;;;;;;;19.13;100.00;99418.03;5113768;28;20515;-86
2022/06/06 00:53:03;;;;;;;9.77;8.67;;;;;;;19.09;100.00;99422.09;5113701;28;20432;-86
2022/06/06 00:55:32;;;;;;;10.83;8.13;;;;;;;19.08;100.00;99423.09;5114316;28;20959;-86
2022/06/06 00:58:02;;;;;;;9.67;8.83;;;;;;;19.07;100.00;99418.66;5113916;28;20552;-86
2022/06/06 01:00:30;;;;;;;10.32;8.30;;;;;;;19.14;100.00;99419.78;5113304;28;20533;-86
2022/06/06 01:03:01;;;;;;;9.50;7.77;;;;;;;19.10;100.00;99416.47;5113990;28;20226;-86
2022/06/06 01:05:28;;;;;;;10.10;8.27;;;;;;;18.99;100.00;99413.91;5114285;28;20456;-86
2022/06/06 01:07:55;;;;;;;11.33;8.30;;;;;;;18.99;100.00;99413.91;5114205;28;20520;-87
2022/06/06 01:10:22;;;;;;;8.68;7.82;;;;;;;19.04;100.00;99410.75;5113996;28;20512;-87
2022/06/06 01:12:52;;;;;;;8.93;8.02;;;;;;;19.02;100.00;99405.47;5113675;28;20194;-87
2022/06/06 01:15:22;;;;;;;9.63;8.45;;;;;;;19.00;100.00;99417.53;5113899;28;20199;-86
2022/06/06 01:17:59;;;;;;;11.80;8.93;;;;;;;18.87;100.00;99410.50;5112711;28;20322;-86
2022/06/06 01:20:53;;;;;;;12.63;7.95;;;;;;;18.95;100.00;99405.19;5113855;28;20789;-87
2022/06/06 01:23:56;;;;;;;8.80;8.00;;;;;;;18.91;100.00;99409.22;5113866;28;20187;-87
2022/06/06 01:26:46;;;;;;;11.80;8.57;;;;;;;18.98;100.00;99408.63;5113458;28;20273;-85
2022/06/06 01:29:17;;;;;;;8.77;7.93;;;;;;;19.02;100.00;99404.59;5113028;28;20466;-87
2022/06/06 01:31:48;;;;;;;7.72;6.95;;;;;;;18.89;100.00;99411.22;5113877;28;20236;-87
2022/06/06 01:34:22;;;;;;;9.23;7.77;;;;;;;18.80;100.00;99412.09;5113883;28;20618;-87
2022/06/06 01:36:50;;;;;;;9.50;8.60;;;;;;;18.74;100.00;99412.66;5113783;28;20544;-86
2022/06/06 01:39:17;;;;;;;9.75;8.40;;;;;;;18.74;100.00;99423.56;5113802;28;20922;-86
2022/06/06 01:41:52;;;;;;;9.50;8.40;;;;;;;18.50;100.00;99416.72;5113385;28;20183;-86
2022/06/06 01:44:26;;;;;;;9.20;8.00;;;;;;;18.56;100.00;99412.53;5113581;28;20500;-87
2022/06/06 01:46:54;;;;;;;9.87;8.03;;;;;;;18.56;100.00;99407.06;5113632;28;20509;-87
2022/06/06 01:49:23;;;;;;;9.60;8.60;;;;;;;18.44;100.00;99406.38;5112882;28;20429;-86
2022/06/06 01:52:00;;;;;;;9.60;8.27;;;;;;;18.30;100.00;99402.22;5093346;28;20636;-87
2022/06/06 01:54:26;;;;;;;10.40;8.35;;;;;;;18.36;100.00;99405.34;5093080;28;20513;-86
2022/06/06 01:56:54;;;;;;;11.27;7.90;;;;;;;18.13;100.00;99408.38;5093183;28;20191;-86
2022/06/06 01:59:22;;;;;;;11.40;8.85;;;;;;;18.01;100.00;99404.06;5095621;28;20278;-87
2022/06/06 02:01:49;;;;;;;13.68;8.45;;;;;;;18.00;100.00;99400.50;5112879;28;20199;-87
2022/06/06 02:04:18;;;;;;;24.33;18.83;;;;;;;17.96;100.00;99395.47;5113043;28;20187;-86
2022/06/06 02:06:44;;;;;;;11.27;9.98;;;;;;;17.69;100.00;99394.22;5113178;28;20194;-87
2022/06/06 02:09:11;;;;;;;11.93;8.73;;;;;;;17.48;100.00;99402.50;5112887;28;20666;-87
2022/06/06 02:11:38;;;;;;;10.20;9.18;;;;;;;17.51;100.00;99408.50;5112939;28;20696;-87
2022/06/06 02:14:05;;;;;;;9.63;8.63;;;;;;;17.48;100.00;99418.81;5113088;28;20266;-86
2022/06/06 02:16:33;;;;;;;13.73;9.65;;;;;;;17.46;100.00;99399.88;5112230;28;20234;-87
2022/06/06 02:19:00;;;;;;;10.90;8.52;;;;;;;17.44;100.00;99407.31;5114374;28;20213;-87
2022/06/06 02:21:27;;;;;;;16.42;8.30;;;;;;;17.44;100.00;99409.19;5112663;28;20293;-86
2022/06/06 02:23:53;;;;;;;11.05;9.40;;;;;;;17.30;100.00;99416.72;5112703;28;20274;-87
2022/06/06 02:26:20;;;;;;;9.48;8.50;;;;;;;17.28;100.00;99409.72;5112614;28;20288;-86
2022/06/06 02:28:47;;;;;;;9.65;8.52;;;;;;;17.17;100.00;99410.66;5114333;28;20269;-86
2022/06/06 02:31:13;;;;;;;11.77;8.80;;;;;;;17.13;100.00;99408.34;5115832;28;20285;-86
2022/06/06 02:33:41;;;;;;;10.52;8.63;;;;;;;17.19;100.00;99405.09;5116571;28;20193;-86
2022/06/06 02:36:08;;;;;;;10.55;8.30;;;;;;;17.13;100.00;99414.63;5116548;28;20208;-86
2022/06/06 02:38:35;;;;;;;13.02;9.18;;;;;;;17.02;100.00;99409.28;5116766;28;20759;-86
2022/06/06 02:41:08;;;;;;;10.75;9.65;;;;;;;17.03;100.00;99403.72;5116589;28;20207;-86
2022/06/06 02:43:36;;;;;;;11.27;9.70;;;;;;;16.99;100.00;99409.56;5116719;28;20184;-87
2022/06/06 02:46:03;;;;;;;12.57;9.10;;;;;;;17.16;100.00;99410.78;5116591;28;20212;-86
2022/06/06 02:48:30;;;;;;;10.80;9.15;;;;;;;17.08;100.00;99396.00;5116300;28;20240;-86
2022/06/06 02:50:58;;;;;;;11.65;9.32;;;;;;;16.93;100.00;99396.50;5115814;28;20907;-86
2022/06/06 02:53:25;;;;;;;9.02;8.00;;;;;;;16.98;100.00;99402.38;5116436;28;20189;-86
2022/06/06 02:55:52;;;;;;;10.00;8.75;;;;;;;17.13;100.00;99400.19;5116486;28;20309;-87
2022/06/06 02:58:20;;;;;;;10.73;8.93;;;;;;;16.96;100.00;99399.81;5116502;28;20693;-86
2022/06/06 03:00:48;;;;;;;13.55;9.63;;;;;;;16.96;100.00;99401.66;5116543;27;20197;-86
2022/06/06 03:03:14;;;;;;;10.93;9.23;;;;;;;17.01;100.00;99396.69;5116590;28;20583;-86
2022/06/06 03:05:53;;;;;;;9.20;8.32;;;;;;;17.01;100.00;99388.53;5115926;28;20275;-86
2022/06/06 03:08:35;;;;;;;9.50;7.93;;;;;;;17.19;100.00;99384.19;5116400;28;20602;-87
2022/06/06 03:11:17;;;;;;;11.38;9.50;;;;;;;16.99;100.00;99380.50;5115734;28;20218;-86
2022/06/06 03:14:04;;;;;;;10.05;8.52;;;;;;;16.99;100.00;99385.94;5115909;28;20192;-87
2022/06/06 03:22:54;;;;;;;11.18;9.75;;;;;;;16.92;100.00;99390.19;5115640;28;20196;-87
2022/06/06 03:25:31;;;;;;;9.30;8.40;;;;;;;16.76;100.00;99401.53;5115874;28;20279;-86
2022/06/06 03:28:11;;;;;;;10.35;9.32;;;;;;;16.86;100.00;99393.44;5115840;28;20269;-86
2022/06/06 03:30:44;;;;;;;10.25;8.70;;;;;;;16.94;100.00;99398.22;5115363;27;20192;-86
2022/06/06 03:33:19;;;;;;;11.68;9.40;;;;;;;16.97;100.00;99392.50;5117088;27;20628;-86
2022/06/06 03:35:54;;;;;;;10.95;8.77;;;;;;;16.88;100.00;99397.75;5115541;28;20196;-85
2022/06/06 03:38:30;;;;;;;11.57;10.43;;;;;;;16.77;100.00;99396.94;5115708;28;20647;-85
2022/06/06 03:41:10;;;;;;;10.93;8.23;;;;;;;16.77;100.00;99400.50;5114743;28;20194;-85
2022/06/06 03:43:46;;;;;;;13.45;10.38;;;;;;;16.67;100.00;99391.44;5095277;28;20189;-86
2022/06/06 03:46:27;;;;;;;12.27;9.50;;;;;;;16.71;100.00;99394.75;5095090;28;20224;-87
2022/06/06 03:49:12;;;;;;;12.10;9.75;;;;;;;16.76;100.00;99378.91;5094979;28;20267;-86
2022/06/06 03:51:59;;;;;;;11.02;9.40;;;;;;;16.77;100.00;99380.63;5100095;28;20194;-87
2022/06/06 03:54:36;;;;;;;12.73;10.57;;;;;;;16.77;100.00;99367.88;5114617;28;20200;-85
2022/06/06 03:57:15;;;;;;;11.43;9.00;;;;;;;16.81;100.00;99380.25;5115181;28;20279;-86
2022/06/06 03:59:44;;;;;;;9.88;8.40;;;;;;;16.75;100.00;99388.06;5114986;28;20591;-85
2022/06/06 04:02:17;;;;;;;10.95;9.85;;;;;;;16.66;100.00;99392.44;5115674;28;20270;-86
2022/06/06 04:04:44;;;;;;;10.40;9.38;;;;;;;16.61;100.00;99386.53;5115848;28;20657;-85
2022/06/06 04:07:12;;;;;;;9.70;8.70;;;;;;;16.57;100.00;99395.94;5115240;28;20302;-85
2022/06/06 04:09:38;;;;;;;9.90;8.77;;;;;;;16.47;100.00;99396.75;5115476;28;20183;-86
2022/06/06 04:12:35;;;;;;;10.82;9.68;;;;;;;16.48;100.00;99397.59;5115044;28;20272;-86
2022/06/06 04:15:15;;;;;;;12.15;9.40;;;;;;;16.45;100.00;99396.00;5114120;28;20191;-86
2022/06/06 04:17:56;;;;;;;17.35;13.00;;;;;;;16.28;100.00;99399.31;5114760;28;20324;-86
2022/06/06 04:20:30;;;;;;;11.52;10.02;;;;;;;16.46;100.00;99405.00;5114495;28;20184;-86
2022/06/06 04:23:33;;;;;;;14.07;11.15;;;;;;;16.50;100.00;99400.19;5114906;28;20180;-85
2022/06/06 04:26:11;;;;;;;11.27;10.18;;;;;;;16.61;100.00;99400.13;5107024;28;20287;-85
2022/06/06 04:28:53;;;;;;;9.40;8.48;;;;;;;16.60;100.00;99398.41;5114409;28;20195;-86
2022/06/06 04:31:27;;;;;;;11.07;9.00;;;;;;;16.57;100.00;99401.38;5110163;28;20653;-86
2022/06/06 04:34:02;;;;;;;9.75;8.57;;;;;;;16.59;100.00;99400.25;5114242;28;20283;-85
2022/06/06 04:36:35;;;;;;;10.68;8.40;;;;;;;16.81;100.00;99407.44;5114382;28;20281;-86
2022/06/06 04:39:09;;;;;;;10.93;9.43;;;;;;;16.78;100.00;99402.25;5114352;28;20665;-86
2022/06/06 04:41:40;;;;;;;10.02;8.05;;;;;;;16.91;100.00;99401.19;5113346;27;20296;-86
2022/06/06 04:44:16;;;;;;;12.05;9.07;;;;;;;17.20;100.00;99402.22;5113887;28;20188;-86
2022/06/06 04:46:48;;;;;;;9.93;8.73;;;;;;;17.32;100.00;99396.66;5114228;28;20271;-86
2022/06/06 04:49:15;;;;;;;10.43;9.00;;;;;;;17.18;100.00;99395.19;5114058;28;20282;-86
2022/06/06 04:51:45;;;;;;;10.65;8.10;;;;;;;17.33;100.00;99409.28;5114286;28;20986;-86
2022/06/06 04:54:16;;;;;;;10.02;8.40;;;;;;;17.22;100.00;99413.81;5112086;28;20279;-85
2022/06/06 04:56:44;;;;;;;10.02;8.75;;;;;;;17.21;100.00;99412.09;5110303;28;20200;-85
2022/06/06 04:59:13;;;;;;;9.48;8.57;;;;;;;17.37;100.00;99413.47;5112018;28;20278;-85
2022/06/06 05:01:40;;;;;;;12.15;8.43;;;;;;;17.47;100.00;99411.63;5112870;28;20564;-86
2022/06/06 05:04:07;;;;;;;9.65;7.65;;;;;;;17.53;100.00;99415.69;5113015;28;20683;-86
2022/06/06 05:07:03;;;;;;;8.80;7.75;;;;;;;17.71;100.00;99423.03;5112918;28;20198;-86
2022/06/06 05:09:45;;;;;;;8.95;7.55;;;;;;;18.00;100.00;99416.84;5106751;28;20276;-86
2022/06/06 05:12:26;;;;;;;8.75;7.95;;;;;;;17.95;100.00;99410.91;5112826;28;20602;-86
2022/06/06 05:15:08;;;;;;;8.25;7.15;;;;;;;18.12;100.00;99402.06;5111446;28;20190;-86
2022/06/06 05:18:01;;;;;;;10.40;8.25;;;;;;;18.22;100.00;99401.19;5113269;28;20230;-86
2022/06/06 05:20:57;;;;;;;11.15;7.93;;;;;;;18.26;100.00;99403.50;5113411;28;20274;-86
2022/06/06 05:23:52;;;;;;;11.57;8.20;;;;;;;18.37;100.00;99399.78;5111501;28;20194;-86
2022/06/06 05:26:34;;;;;;;8.60;7.40;;;;;;;18.31;100.00;99412.09;5112309;28;20194;-87
2022/06/06 05:29:22;;;;;;;9.85;7.95;;;;;;;18.13;100.00;99425.59;5112511;28;20182;-87
2022/06/06 05:32:06;;;;;;;9.40;8.20;;;;;;;17.87;100.00;99438.03;5112868;28;20194;-86
2022/06/06 05:34:38;;;;;;;11.32;8.00;;;;;;;17.82;100.00;99441.16;5110538;28;20225;-83
2022/06/06 05:37:27;;;;;;;9.02;8.13;;;;;;;17.71;100.00;99444.81;5111630;28;20272;-83
2022/06/06 05:40:08;;;;;;;8.00;7.30;;;;;;;17.56;100.00;99454.34;5112716;28;20221;-83
2022/06/06 05:42:47;;;;;;;11.45;8.00;;;;;;;17.56;100.00;99451.63;5111642;28;20221;-83
2022/06/06 05:45:25;;;;;;;7.85;6.97;;;;;;;17.56;100.00;99454.34;5112855;28;20689;-86
2022/06/06 05:48:04;;;;;;;8.70;7.50;;;;;;;17.66;100.00;99455.28;5111741;28;20231;-85
2022/06/06 05:50:47;;;;;;;9.68;7.50;;;;;;;17.56;100.00;99459.81;5113074;28;20620;-84
2022/06/06 05:53:41;;;;;;;8.90;7.45;;;;;;;17.83;100.00;99453.75;5112416;28;20200;-85
2022/06/06 05:56:46;;;;;;;9.10;8.15;;;;;;;17.77;100.00;99451.56;5091937;28;20277;-86
2022/06/06 05:59:38;;;;;;;9.10;8.20;;;;;;;18.25;100.00;99445.41;5104334;28;20216;-87
2022/06/06 06:02:25;;;;;;;11.55;8.60;;;;;;;18.21;100.00;99441.22;5112425;28;20199;-86
2022/06/06 06:05:13;;;;;;;9.88;8.38;;;;;;;18.11;100.00;99432.16;5115795;28;20273;-86
2022/06/06 06:07:49;;;;;;;8.38;7.57;;;;;;;18.15;100.00;99425.44;5115987;28;20199;-86
2022/06/06 06:10:21;;;;;;;8.10;7.30;;;;;;;18.25;100.00;99429.03;5116021;28;20179;-87
2022/06/06 06:13:16;;;;;;;9.25;7.82;;;;;;;18.23;100.00;99435.66;5115960;28;20275;-87
2022/06/06 06:15:44;;;;;;;14.07;8.80;;;;;;;18.21;100.00;99433.06;5117437;28;20184;-86
2022/06/06 06:18:16;;;;;;;8.30;7.30;;;;;;;18.21;100.00;99445.81;5115808;28;20229;-86
2022/06/06 06:20:51;;;;;;;8.70;7.90;;;;;;;18.10;100.00;99450.38;5115568;27;20280;-87
2022/06/06 06:23:22;;;;;;;9.88;8.75;;;;;;;17.81;100.00;99458.47;5116295;28;20196;-86
2022/06/06 06:25:50;;;;;;;9.18;7.32;;;;;;;17.98;100.00;99450.66;5114488;28;20188;-87
2022/06/06 06:28:17;;;;;;;8.27;7.47;;;;;;;17.92;100.00;99455.66;5106244;28;20628;-87
2022/06/06 06:30:58;;;;;;;9.30;8.50;;;;;;;18.09;100.00;99453.22;5095540;28;20196;-87
2022/06/06 06:33:55;;;;;;;9.05;8.15;;;;;;;17.85;100.00;99459.94;5096246;28;20609;-87
2022/06/06 06:36:43;;;;;;;11.73;8.07;;;;;;;18.03;100.00;99462.84;5095895;28;20565;-86
2022/06/06 06:39:25;;;;;;;10.38;8.40;;;;;;;18.23;100.00;99462.91;5115675;27;20517;-84
2022/06/06 06:42:05;;;;;;;10.15;9.05;;;;;;;18.35;100.00;99459.03;5118217;27;20681;-87
2022/06/06 06:44:34;;;;;;;8.40;7.25;;;;;;;18.20;100.00;99471.34;5122939;27;20285;-86
2022/06/06 06:47:11;;;;;;;8.80;7.90;;;;;;;18.51;100.00;99472.94;5111488;28;20285;-85
2022/06/06 06:49:43;;;;;;;8.50;7.65;;;;;;;18.73;100.00;99470.94;5098592;28;20221;-85
2022/06/06 06:52:25;;;;;;;8.02;6.82;;;;;;;18.74;100.00;99467.19;5116057;27;20190;-86
2022/06/06 06:55:03;;;;;;;12.18;7.65;;;;;;;18.84;100.00;99469.97;5114719;28;20189;-86
2022/06/06 06:57:48;;;;;;;8.23;7.28;;;;;;;19.10;100.00;99478.38;5115715;28;20193;-85
2022/06/06 07:00:18;;;;;;;8.43;6.50;;;;;;;19.12;100.00;99470.91;5115776;28;20212;-86
2022/06/06 07:08:48;;;;;;;7.43;5.97;;;;;;;20.31;100.00;99476.59;5115584;28;20643;-87
2022/06/06 07:11:50;;;;;;;7.90;5.87;;;;;;;20.23;100.00;99479.22;5115234;28;20918;-86
2022/06/06 07:14:36;;;;;;;6.97;6.37;;;;;;;19.84;100.00;99479.47;5107249;28;20437;-88
2022/06/06 07:17:04;;;;;;;8.20;6.53;;;;;;;19.22;100.00;99481.78;5114263;28;20553;-88
2022/06/06 07:19:35;;;;;;;7.00;6.30;;;;;;;19.52;100.00;99467.06;5115081;28;20551;-86
2022/06/06 07:22:04;;;;;;;8.23;6.30;;;;;;;19.55;100.00;99477.69;5115258;28;20913;-87
2022/06/06 07:24:32;;;;;;;7.20;6.50;;;;;;;19.66;100.00;99480.22;5114772;28;20527;-86
2022/06/06 07:27:01;;;;;;;7.53;6.83;;;;;;;19.71;100.00;99479.78;5114931;27;20433;-85
2022/06/06 07:29:28;;;;;;;6.97;6.27;;;;;;;19.79;100.00;99482.66;5114841;27;20433;-87
2022/06/06 07:32:20;;;;;;;6.30;5.70;;;;;;;20.06;100.00;99487.25;5115095;28;20996;-84
2022/06/06 07:34:58;;;;;;;9.73;6.07;;;;;;;20.08;100.00;99489.81;5115663;28;20963;-86
2022/06/06 07:37:36;;;;;;;6.03;5.40;;;;;;;20.15;100.00;99472.66;5114941;28;20437;-86
2022/06/06 07:40:14;;;;;;;7.80;5.80;;;;;;;19.71;100.00;99471.59;5115141;28;20537;-86
2022/06/06 07:43:16;;;;;;;6.20;5.60;;;;;;;19.79;100.00;99471.72;5114960;28;20523;-85
2022/06/06 07:45:47;;;;;;;6.30;5.70;;;;;;;19.97;100.00;99469.03;5114183;28;20464;-86
2022/06/06 07:48:25;;;;;;;7.70;5.60;;;;;;;20.28;100.00;99472.28;5115002;27;20516;-85
2022/06/06 07:51:02;;;;;;;6.03;5.20;;;;;;;20.55;99.52;99471.34;5114571;28;20794;-85
2022/06/06 07:53:51;;;;;;;6.60;5.40;;;;;;;20.27;100.00;99467.84;5115000;28;20955;-85
2022/06/06 07:56:30;;;;;;;6.17;5.10;;;;;;;20.26;100.00;99462.50;5114402;28;20516;-86
2022/06/06 07:59:09;;;;;;;8.90;5.70;;;;;;;19.94;100.00;99467.47;5114215;28;22206;-84
2022/06/06 08:01:45;;;;;;;7.80;5.53;;;;;;;20.60;99.24;99460.84;5103680;28;20508;-85
2022/06/06 08:04:26;;;;;;;5.73;5.00;;;;;;;20.66;95.60;99463.97;5113170;28;20673;-84
2022/06/06 08:07:04;;;;;;;5.63;4.60;;;;;;;21.64;88.35;99464.69;5114190;28;20966;-84
2022/06/06 08:09:50;;;;;;;7.00;6.07;;;;;;;21.72;87.20;99451.03;5113662;28;20417;-85
2022/06/06 08:12:34;;;;;;;6.33;5.50;;;;;;;22.45;80.49;99449.56;5113629;28;20425;-84
2022/06/06 08:15:16;;;;;;;4.90;4.40;;;;;;;22.75;77.34;99434.31;5113991;28;20457;-85
2022/06/06 08:18:04;;;;;;;6.10;4.87;;;;;;;22.64;77.14;99443.75;5113480;28;20480;-85
2022/06/06 08:20:39;;;;;;;5.70;4.80;;;;;;;22.46;77.29;99437.56;5113487;28;20465;-85
2022/06/06 08:23:09;;;;;;;5.10;4.70;;;;;;;21.93;80.45;99447.84;5114249;28;20528;-85
2022/06/06 08:25:38;;;;;;;8.93;4.73;;;;;;;21.50;83.08;99436.00;5113268;28;20460;-84
2022/06/06 08:28:07;;;;;;;5.37;4.77;;;;;;;21.28;87.89;99442.91;5113543;28;20865;-85
2022/06/06 08:30:35;;;;;;;4.97;4.37;;;;;;;21.14;92.51;99441.63;5113473;27;20850;-86
2022/06/06 08:33:02;;;;;;;5.33;4.83;;;;;;;21.38;87.98;99435.41;5113379;28;20430;-86
2022/06/06 08:35:51;;;;;;;5.70;5.10;;;;;;;21.39;89.21;99439.88;5113640;27;21014;-86
2022/06/06 08:38:30;;;;;;;4.90;4.10;;;;;;;21.14;83.79;99432.50;5113212;28;20487;-86
2022/06/06 08:41:22;;;;;;;6.03;3.90;;;;;;;21.25;84.46;99440.47;5113688;28;21133;-85
2022/06/06 08:44:03;;;;;;;5.67;4.20;;;;;;;21.12;84.50;99443.66;5113631;28;20773;-85
2022/06/06 08:46:43;;;;;;;5.10;4.03;;;;;;;21.07;84.05;99440.50;5112860;28;20475;-85
2022/06/06 08:52:19;;;;;;;5.10;3.50;;;;;;;20.66;88.73;99436.63;5112975;28;20450;-86
2022/06/06 08:55:21;;;;;;;8.50;4.20;;;;;;;20.76;88.24;99440.97;5113030;28;20429;-84
2022/06/06 08:58:10;;;;;;;6.83;4.10;;;;;;;22.13;79.09;99433.88;5109320;28;20457;-85
2022/06/06 09:00:48;;;;;;;6.20;4.10;;;;;;;22.64;73.52;99435.50;5113171;28;20954;-84
2022/06/06 09:03:46;;;;;;;4.07;3.17;;;;;;;22.79;68.99;99438.41;5113528;28;20777;-85
2022/06/06 09:06:46;;;;;;;4.77;3.20;;;;;;;23.19;62.25;99433.97;5113039;28;20954;-85
2022/06/06 09:09:42;;;;;;;2.80;2.43;;;;;;;22.80;57.26;99440.16;5111142;28;20449;-85
2022/06/06 09:12:44;;;;;;;20.20;18.60;;;;;;;23.17;57.10;99437.91;5113122;28;20497;-85
2022/06/06 09:15:52;;;;;;;7.20;2.90;;;;;;;23.59;57.67;99436.78;5055813;28;20530;-85
2022/06/06 09:19:10;;;;;;;4.10;2.47;;;;;;;22.96;56.99;99433.78;5112052;28;20540;-85
2022/06/06 09:21:58;;;;;;;4.13;2.63;;;;;;;22.87;57.50;99421.09;5049795;28;20436;-84
2022/06/06 09:24:53;;;;;;;3.27;2.97;;;;;;;22.68;57.07;99428.66;5106500;28;20433;-85
2022/06/06 09:27:49;;;;;;;2.13;1.97;;;;;;;23.03;56.21;99423.00;5112409;28;20467;-84
2022/06/06 09:30:30;;;;;;;3.40;2.30;;;;;;;24.13;52.63;99413.00;5103423;28;20432;-85
2022/06/06 09:33:26;;;;;;;4.23;1.90;;;;;;;23.69;50.67;99431.94;5111922;28;20433;-85
2022/06/06 09:36:23;;;;;;;3.30;1.90;;;;;;;23.78;51.91;99425.38;5109784;28;20540;-85
2022/06/06 09:39:09;;;;;;;3.80;2.57;;;;;;;23.22;54.79;99427.25;5102648;28;20461;-84
2022/06/06 09:41:41;;;;;;;5.43;2.50;;;;;;;23.67;53.17;99437.59;5112327;28;20444;-84
2022/06/06 09:44:22;;;;;;;3.73;2.63;;;;;;;23.02;54.35;99429.50;5124272;27;20560;-85
2022/06/06 09:47:33;;;;;;;4.10;2.37;;;;;;;22.65;55.34;99420.75;5112282;28;20425;-85
2022/06/06 09:50:29;;;;;;;2.90;2.20;;;;;;;22.94;52.44;99415.78;5105121;28;20522;-84
2022/06/06 09:53:30;;;;;;;10.73;2.57;;;;;;;22.87;53.95;99427.44;5112918;28;20421;-78
2022/06/06 09:59:51;;;;;;;2.70;2.43;;;;;;;23.38;52.92;99424.50;5108486;28;20468;-81
2022/06/06 10:03:03;;;;;;;3.10;2.63;;;;;;;23.21;54.37;99417.31;5092284;28;20497;-82
2022/06/06 10:06:04;;;;;;;2.83;2.40;;;;;;;22.87;56.83;99416.47;5092256;28;20906;-82
2022/06/06 10:09:08;;;;;;;4.17;2.60;;;;;;;23.07;56.42;99417.00;5092563;28;20430;-83
2022/06/06 10:12:13;;;;;;;5.43;2.40;;;;;;;22.42;58.25;99420.56;5102195;28;20474;-83
2022/06/06 10:14:56;;;;;;;4.90;2.77;;;;;;;22.40;58.98;99424.53;5113179;28;20448;-83
2022/06/06 10:17:40;;;;;;;3.80;2.50;;;;;;;22.07;61.28;99417.06;5110751;28;20836;-82
2022/06/06 10:20:18;;;;;;;4.53;2.47;;;;;;;22.28;61.19;99413.88;5112980;28;20465;-83
2022/06/06 10:23:07;;;;;;;2.90;2.60;;;;;;;22.21;62.35;99415.59;5112957;28;20513;-82
2022/06/06 10:26:12;;;;;;;2.90;2.50;;;;;;;22.75;60.26;99412.38;5112754;28;20437;-81
2022/06/06 10:29:05;;;;;;;3.07;2.23;;;;;;;22.34;60.85;99408.72;5111710;28;20512;-81
2022/06/06 10:31:50;;;;;;;4.70;2.27;;;;;;;22.44;57.44;99409.44;5109188;28;20957;-83
2022/06/06 10:34:38;;;;;;;2.60;2.00;;;;;;;22.77;54.22;99404.81;5111885;28;20425;-82
2022/06/06 10:37:39;;;;;;;2.43;2.10;;;;;;;22.74;55.32;99415.28;5112754;28;20940;-81
2022/06/06 10:40:29;;;;;;;3.07;2.40;;;;;;;22.77;56.22;99404.81;5111545;28;20961;-81
2022/06/06 10:43:30;;;;;;;2.60;1.77;;;;;;;22.77;55.91;99404.81;5095882;28;20520;-81
2022/06/06 10:46:01;;;;;;;3.50;2.73;;;;;;;22.65;57.49;99415.25;5104512;28;20429;-81
2022/06/06 10:49:03;;;;;;;2.30;2.10;;;;;;;22.51;57.05;99404.13;5112512;28;20831;-82
2022/06/06 10:52:04;;;;;;;2.40;2.20;;;;;;;22.38;57.79;99407.38;5091799;28;21141;-81
2022/06/06 10:55:24;;;;;;;3.57;2.60;;;;;;;22.98;56.10;99409.78;5095175;28;20430;-81
2022/06/06 10:58:28;;;;;;;5.70;2.50;;;;;;;22.63;56.75;99400.84;5088722;28;21018;-82
2022/06/06 11:01:28;;;;;;;4.07;2.40;;;;;;;23.16;55.90;99400.50;5115626;28;20468;-82
2022/06/06 11:04:37;;;;;;;5.37;1.93;;;;;;;22.72;56.42;99409.09;5090090;28;20931;-82
2022/06/06 11:07:22;;;;;;;3.30;2.40;;;;;;;22.78;57.86;99403.78;5103053;28;20986;-82
2022/06/06 11:10:25;;;;;;;2.20;2.00;;;;;;;22.56;58.17;99404.47;5115441;28;20428;-82
2022/06/06 11:13:21;;;;;;;2.60;1.77;;;;;;;21.78;59.68;99408.41;5081302;28;20448;-84
2022/06/06 11:16:13;;;;;;;2.60;2.17;;;;;;;21.85;58.66;99398.50;5112225;28;20476;-85
2022/06/06 11:19:24;;;;;;;3.60;1.70;;;;;;;22.21;56.30;99387.28;5094062;28;20529;-85
2022/06/06 11:22:11;;;;;;;3.60;2.13;;;;;;;22.93;54.59;99390.22;5067815;28;21040;-84
2022/06/06 11:24:47;;;;;;;1.70;1.60;;;;;;;22.78;53.82;99384.56;5096618;28;20489;-85
2022/06/06 11:27:45;;;;;;;2.17;1.40;;;;;;;23.30;50.64;99388.78;5101660;28;20430;-86
2022/06/06 11:30:28;;;;;;;1.60;1.10;;;;;;;22.88;49.55;99389.88;5104749;28;20436;-86
2022/06/06 11:33:39;;;;;;;1.70;1.30;;;;;;;22.79;49.20;99380.78;5094144;28;20426;-85
2022/06/06 11:36:42;;;;;;;4.90;1.33;;;;;;;22.96;48.34;99376.13;5104115;28;20525;-85
2022/06/06 11:39:33;;;;;;;3.00;1.30;;;;;;;23.18;48.37;99371.84;5105012;28;20524;-86
2022/06/06 11:42:24;;;;;;;1.73;1.27;;;;;;;22.65;48.23;99354.91;5114596;28;20467;-85
2022/06/06 11:45:35;;;;;;;3.87;1.70;;;;;;;23.18;47.62;99365.47;5114856;28;20416;-85
2022/06/06 11:48:29;;;;;;;2.20;1.50;;;;;;;23.52;46.25;99376.19;5107449;28;20512;-85
2022/06/06 11:51:42;;;;;;;1.97;1.40;;;;;;;23.63;46.89;99370.31;5102832;28;20423;-84
2022/06/06 11:54:51;;;;;;;2.53;1.23;;;;;;;23.18;49.19;99371.84;5036335;28;20460;-86
2022/06/06 11:57:36;;;;;;;3.10;1.33;;;;;;;22.77;50.70;99371.88;5102953;28;20435;-82
2022/06/06 12:00:38;;;;;;;2.07;1.43;;;;;;;22.50;51.93;99373.09;5111260;28;20429;-83
2022/06/06 12:03:30;;;;;;;3.43;1.70;;;;;;;23.13;48.76;99366.00;5073613;28;20961;-83
2022/06/06 12:06:22;;;;;;;4.10;1.60;;;;;;;22.73;47.94;99362.28;5112595;28;20425;-85
2022/06/06 12:09:17;;;;;;;2.50;1.27;;;;;;;22.69;49.03;99348.03;5113242;28;20438;-85
2022/06/06 12:12:30;;;;;;;4.80;1.30;;;;;;;22.85;49.05;99355.38;5112865;28;20444;-83
2022/06/06 12:15:25;;;;;;;5.13;1.40;;;;;;;22.80;46.96;99349.56;5102346;28;20516;-84
2022/06/06 12:18:20;;;;;;;1.80;1.20;;;;;;;23.05;46.84;99349.56;5103072;28;20522;-85
2022/06/06 12:21:02;;;;;;;2.73;1.20;;;;;;;23.39;45.64;99341.03;5103367;28;20473;-83
2022/06/06 12:23:46;;;;;;;1.90;1.00;;;;;;;23.51;43.00;99331.34;5093652;28;20994;-84
2022/06/06 12:26:38;;;;;;;2.07;0.90;;;;;;;23.12;44.49;99344.22;5093420;28;20975;-83
2022/06/06 12:29:39;;;;;;;4.80;1.10;;;;;;;23.25;43.87;99345.38;5106434;28;20441;-84
2022/06/06 12:32:28;;;;;;;1.50;1.10;;;;;;;23.08;43.53;99344.56;5097664;28;20535;-83
2022/06/06 12:35:04;;;;;;;2.27;1.17;;;;;;;22.93;43.63;99328.94;5100889;27;20446;-82
2022/06/06 12:37:41;;;;;;;3.00;1.30;;;;;;;23.15;44.41;99341.13;5109257;28;20948;-84
2022/06/06 12:40:14;;;;;;;4.63;1.67;;;;;;;23.37;44.12;99336.75;5114204;28;20449;-84
2022/06/06 12:42:54;;;;;;;3.50;1.23;;;;;;;23.94;43.21;99330.97;5106916;28;20445;-84
2022/06/06 12:45:47;;;;;;;3.60;1.20;;;;;;;23.88;41.70;99332.56;5093790;28;20448;-84
2022/06/06 12:48:46;;;;;;;2.70;1.47;;;;;;;24.15;41.61;99324.84;5093425;28;20874;-83